createdAt,value
2022-10-31T00:01:39.367Z,99.27
2022-10-31T00:04:06.732Z,99.28
2022-10-31T00:06:33.502Z,99.48
2022-10-31T00:09:02.637Z,99.59
2022-10-31T00:11:29.618Z,100.00
2022-10-31T00:13:57.695Z,100.00
2022-10-31T00:16:25.882Z,100.00
2022-10-31T00:18:53.708Z,100.00
2022-10-31T00:21:21.443Z,100.00
2022-10-31T00:23:48.304Z,100.00
2022-10-31T00:26:15.401Z,100.00
2022-10-31T00:28:41.925Z,100.00
2022-10-31T00:31:11.744Z,100.00
2022-10-31T00:33:39.472Z,100.00
2022-10-31T00:36:08.065Z,100.00
2022-10-31T00:38:34.714Z,100.00
2022-10-31T00:41:01.290Z,100.00
2022-10-31T00:43:27.983Z,100.00
2022-10-31T00:45:54.902Z,100.00
2022-10-31T00:48:25.944Z,100.00
2022-10-31T00:50:53.224Z,100.00
2022-10-31T00:53:19.796Z,100.00
2022-10-31T00:55:47.555Z,100.00
2022-10-31T01:00:41.785Z,100.00
2022-10-31T01:03:09.194Z,100.00
2022-10-31T01:05:40.839Z,100.00
2022-10-31T01:08:08.600Z,100.00
2022-10-31T01:10:35.151Z,100.00
2022-10-31T01:13:02.047Z,100.00
2022-10-31T01:15:29.110Z,100.00
2022-10-31T01:17:56.012Z,100.00
2022-10-31T01:20:22.801Z,100.00
2022-10-31T01:22:50.761Z,100.00
2022-10-31T01:25:17.321Z,100.00
2022-10-31T01:27:43.941Z,100.00
2022-10-31T01:30:12.135Z,100.00
2022-10-31T01:32:38.813Z,100.00
2022-10-31T01:35:05.802Z,100.00
2022-10-31T01:37:32.419Z,100.00
2022-10-31T01:40:00.531Z,100.00
2022-10-31T01:42:27.268Z,100.00
2022-10-31T01:45:00.180Z,100.00
2022-10-31T01:47:44.051Z,100.00
2022-10-31T01:50:24.908Z,100.00
2022-10-31T01:52:52.658Z,100.00
2022-10-31T01:55:27.764Z,100.00
2022-10-31T01:58:00.627Z,100.00
2022-10-31T02:00:27.504Z,100.00
2022-10-31T02:02:54.086Z,100.00
2022-10-31T02:05:23.981Z,100.00
2022-10-31T02:07:58.350Z,100.00
2022-10-31T02:10:32.840Z,100.00
2022-10-31T02:13:03.244Z,100.00
2022-10-31T02:15:31.386Z,100.00
2022-10-31T02:17:58.270Z,100.00
2022-10-31T02:20:33.056Z,100.00
2022-10-31T02:23:28.992Z,100.00
2022-10-31T02:26:37.202Z,100.00
2022-10-31T02:29:25.962Z,100.00
2022-10-31T02:32:01.441Z,100.00
2022-10-31T02:34:36.405Z,100.00
2022-10-31T02:37:12.624Z,100.00
2022-10-31T02:39:50.457Z,100.00
2022-10-31T02:42:30.036Z,100.00
2022-10-31T02:45:03.932Z,100.00
2022-10-31T02:47:37.639Z,100.00
2022-10-31T02:50:09.868Z,100.00
2022-10-31T02:52:39.679Z,100.00
2022-10-31T02:55:33.534Z,100.00
2022-10-31T02:58:09.336Z,100.00
2022-10-31T03:00:43.974Z,100.00
2022-10-31T03:03:18.692Z,100.00
2022-10-31T03:05:56.005Z,100.00
2022-10-31T03:08:30.911Z,100.00
2022-10-31T03:10:59.980Z,100.00
2022-10-31T03:13:36.856Z,100.00
2022-10-31T03:16:09.734Z,100.00
2022-10-31T03:18:40.466Z,100.00
2022-10-31T03:21:13.767Z,100.00
2022-10-31T03:23:42.634Z,100.00
2022-10-31T03:26:12.104Z,100.00
2022-10-31T03:28:45.176Z,100.00
2022-10-31T03:31:17.465Z,100.00
2022-10-31T03:33:45.898Z,100.00
2022-10-31T03:36:16.593Z,100.00
2022-10-31T03:38:45.957Z,100.00
2022-10-31T03:41:19.253Z,100.00
2022-10-31T03:43:56.130Z,100.00
2022-10-31T03:46:24.516Z,100.00
2022-10-31T03:48:51.604Z,100.00
2022-10-31T03:51:23.817Z,100.00
2022-10-31T03:53:57.059Z,100.00
2022-10-31T03:56:30.721Z,100.00
2022-10-31T03:59:05.187Z,100.00
2022-10-31T04:01:36.139Z,100.00
2022-10-31T04:04:04.040Z,100.00
2022-10-31T04:06:32.232Z,100.00
2022-10-31T04:09:05.500Z,100.00
2022-10-31T04:11:33.296Z,100.00
2022-10-31T04:14:34.285Z,100.00
2022-10-31T04:17:04.434Z,100.00
2022-10-31T04:19:36.466Z,100.00
2022-10-31T04:22:03.099Z,100.00
2022-10-31T04:24:30.193Z,100.00
2022-10-31T04:26:57.694Z,100.00
2022-10-31T04:29:24.678Z,100.00
2022-10-31T04:31:52.750Z,100.00
2022-10-31T04:34:19.356Z,100.00
2022-10-31T04:36:45.928Z,100.00
2022-10-31T04:39:15.151Z,100.00
2022-10-31T04:41:48.847Z,100.00
2022-10-31T04:44:15.753Z,100.00
2022-10-31T04:46:42.349Z,100.00
2022-10-31T04:49:11.335Z,100.00
2022-10-31T04:51:38.019Z,100.00
2022-10-31T04:54:05.418Z,100.00
2022-10-31T04:57:10.597Z,100.00
2022-10-31T04:59:38.037Z,100.00
2022-10-31T05:02:04.630Z,100.00
2022-10-31T05:04:47.545Z,100.00
2022-10-31T05:07:14.273Z,100.00
2022-10-31T05:09:40.823Z,100.00
2022-10-31T05:12:07.510Z,100.00
2022-10-31T05:14:52.463Z,100.00
2022-10-31T05:17:37.729Z,100.00
2022-10-31T05:20:32.177Z,100.00
2022-10-31T05:23:26.227Z,100.00
2022-10-31T05:25:53.903Z,100.00
2022-10-31T05:28:21.062Z,100.00
2022-10-31T05:30:47.850Z,100.00
2022-10-31T05:33:16.427Z,100.00
2022-10-31T05:36:03.409Z,100.00
2022-10-31T05:38:48.372Z,100.00
2022-10-31T05:41:33.690Z,100.00
2022-10-31T05:44:13.429Z,100.00
2022-10-31T05:47:09.621Z,100.00
2022-10-31T05:49:58.905Z,100.00
2022-10-31T05:52:33.053Z,100.00
2022-10-31T05:55:12.077Z,100.00
2022-10-31T05:57:45.768Z,100.00
2022-10-31T06:00:13.560Z,100.00
2022-10-31T06:02:47.680Z,100.00
2022-10-31T06:05:28.642Z,100.00
2022-10-31T06:07:57.071Z,100.00
2022-10-31T06:10:24.844Z,100.00
2022-10-31T06:12:54.563Z,100.00
2022-10-31T06:15:34.016Z,100.00
2022-10-31T06:18:03.058Z,100.00
2022-10-31T06:20:34.101Z,100.00
2022-10-31T06:23:05.644Z,100.00
2022-10-31T06:25:33.969Z,100.00
2022-10-31T06:28:00.840Z,100.00
2022-10-31T06:30:44.628Z,100.00
2022-10-31T06:33:11.460Z,100.00
2022-10-31T06:35:46.380Z,100.00
2022-10-31T06:38:14.406Z,100.00
2022-10-31T06:40:42.686Z,100.00
2022-10-31T06:43:21.525Z,100.00
2022-10-31T06:45:49.450Z,100.00
2022-10-31T06:48:24.063Z,100.00
2022-10-31T06:51:14.898Z,100.00
2022-10-31T06:53:44.168Z,100.00
2022-10-31T06:56:12.520Z,100.00
2022-10-31T06:58:45.187Z,100.00
2022-10-31T07:01:13.505Z,100.00
2022-10-31T07:03:40.186Z,100.00
2022-10-31T07:06:08.152Z,100.00
2022-10-31T07:08:34.848Z,100.00
2022-10-31T07:11:03.725Z,100.00
2022-10-31T07:13:30.806Z,100.00
2022-10-31T07:16:07.918Z,100.00
2022-10-31T07:18:36.510Z,100.00
2022-10-31T07:21:03.306Z,100.00
2022-10-31T07:23:29.914Z,100.00
2022-10-31T07:26:17.882Z,100.00
2022-10-31T07:28:47.300Z,100.00
2022-10-31T07:31:14.993Z,100.00
2022-10-31T07:33:41.969Z,100.00
2022-10-31T07:36:37.271Z,100.00
2022-10-31T07:39:04.597Z,100.00
2022-10-31T07:41:36.838Z,100.00
2022-10-31T07:44:03.800Z,100.00
2022-10-31T07:46:50.585Z,100.00
2022-10-31T07:49:36.273Z,100.00
2022-10-31T07:52:21.720Z,100.00
2022-10-31T07:55:07.865Z,100.00
2022-10-31T07:57:38.009Z,100.00
2022-10-31T08:00:05.768Z,100.00
2022-10-31T08:02:41.903Z,100.00
2022-10-31T08:05:35.523Z,100.00
2022-10-31T08:08:20.724Z,100.00
2022-10-31T08:10:48.741Z,100.00
2022-10-31T08:13:16.639Z,100.00
2022-10-31T08:15:46.933Z,100.00
2022-10-31T08:18:15.508Z,100.00
2022-10-31T08:20:44.124Z,100.00
2022-10-31T08:23:12.177Z,100.00
2022-10-31T08:25:39.253Z,100.00
2022-10-31T08:28:07.350Z,100.00
2022-10-31T08:30:37.567Z,100.00
2022-10-31T08:33:27.147Z,99.61
2022-10-31T08:36:12.416Z,99.82
2022-10-31T08:39:15.480Z,99.71
2022-10-31T08:41:42.393Z,98.89
2022-10-31T08:44:12.235Z,98.11
2022-10-31T08:46:40.334Z,98.58
2022-10-31T08:49:07.158Z,98.49
2022-10-31T08:51:36.283Z,98.40
2022-10-31T08:54:02.830Z,98.19
2022-10-31T08:56:47.712Z,97.98
2022-10-31T08:59:29.156Z,97.77
2022-10-31T09:02:17.427Z,97.18
2022-10-31T09:04:44.164Z,97.47
2022-10-31T09:07:26.344Z,97.81
2022-10-31T09:09:54.216Z,97.98
2022-10-31T09:12:20.804Z,96.17
2022-10-31T09:15:08.193Z,96.12
2022-10-31T09:17:49.479Z,95.97
2022-10-31T09:20:27.635Z,95.72
2022-10-31T09:22:57.989Z,95.00
2022-10-31T09:25:25.069Z,95.72
2022-10-31T09:28:07.324Z,95.69
2022-10-31T09:30:35.892Z,95.57
2022-10-31T09:33:06.350Z,94.83
2022-10-31T09:35:48.134Z,94.67
2022-10-31T09:38:17.131Z,93.59
2022-10-31T09:40:46.562Z,92.22
2022-10-31T09:43:26.186Z,90.99
2022-10-31T09:46:01.969Z,90.69
2022-10-31T09:48:59.289Z,90.94
2022-10-31T09:51:43.522Z,91.12
2022-10-31T09:54:27.641Z,90.89
2022-10-31T09:56:56.755Z,90.30
2022-10-31T09:59:29.121Z,89.50
2022-10-31T10:01:58.473Z,89.64
2022-10-31T10:04:35.796Z,89.09
2022-10-31T10:07:31.292Z,88.92
2022-10-31T10:10:23.150Z,88.75
2022-10-31T10:13:38.455Z,89.03
2022-10-31T10:16:18.066Z,89.35
2022-10-31T10:18:59.252Z,88.91
2022-10-31T10:21:38.065Z,88.55
2022-10-31T10:24:26.380Z,88.38
2022-10-31T10:27:05.500Z,87.28
2022-10-31T10:29:38.464Z,86.73
2022-10-31T10:32:11.611Z,85.82
2022-10-31T10:34:47.127Z,85.16
2022-10-31T10:37:24.996Z,85.45
2022-10-31T10:39:56.478Z,85.61
2022-10-31T10:42:26.201Z,85.32
2022-10-31T10:44:52.984Z,85.40
2022-10-31T10:47:20.153Z,85.28
2022-10-31T10:49:51.885Z,85.26
2022-10-31T10:52:50.614Z,84.72
2022-10-31T10:55:29.075Z,84.08
2022-10-31T10:57:59.595Z,82.81
2022-10-31T11:00:30.275Z,81.34
2022-10-31T11:02:57.520Z,81.90
2022-10-31T11:05:40.109Z,80.49
2022-10-31T11:08:08.552Z,78.05
2022-10-31T11:10:35.885Z,76.07
2022-10-31T11:13:15.504Z,76.29
2022-10-31T11:15:52.595Z,77.09
2022-10-31T11:18:22.993Z,78.21
2022-10-31T11:20:53.371Z,77.07
2022-10-31T11:23:23.591Z,76.04
2022-10-31T11:25:52.743Z,76.02
2022-10-31T11:28:19.500Z,75.43
2022-10-31T11:30:48.795Z,75.86
2022-10-31T11:33:22.209Z,76.33
2022-10-31T11:35:52.107Z,77.09
2022-10-31T11:38:25.345Z,76.98
2022-10-31T11:40:57.377Z,76.57
2022-10-31T11:43:24.606Z,76.26
2022-10-31T11:45:51.577Z,75.76
2022-10-31T11:48:22.364Z,75.05
2022-10-31T11:50:51.363Z,74.06
2022-10-31T11:53:20.116Z,71.34
2022-10-31T11:56:00.704Z,72.25
2022-10-31T11:58:27.785Z,72.12
2022-10-31T12:00:56.199Z,71.89
2022-10-31T12:03:34.505Z,70.15
2022-10-31T12:06:04.710Z,69.80
2022-10-31T12:08:33.200Z,68.88
2022-10-31T12:11:10.565Z,67.62
2022-10-31T12:13:44.604Z,67.75
2022-10-31T12:16:32.193Z,66.95
2022-10-31T12:19:04.485Z,66.05
2022-10-31T12:21:49.504Z,65.41
2022-10-31T12:24:30.275Z,65.85
2022-10-31T12:27:08.440Z,64.97
2022-10-31T12:29:53.807Z,64.89
2022-10-31T12:32:36.151Z,64.50
2022-10-31T12:35:24.745Z,63.61
2022-10-31T12:38:05.626Z,63.15
2022-10-31T12:40:55.859Z,63.47
2022-10-31T12:43:36.395Z,64.40
2022-10-31T12:46:04.766Z,64.46
2022-10-31T12:48:58.503Z,64.30
2022-10-31T12:51:36.230Z,64.54
2022-10-31T12:54:26.686Z,62.83
2022-10-31T12:57:01.228Z,62.28
2022-10-31T12:59:34.897Z,62.97
2022-10-31T13:02:13.699Z,64.05
2022-10-31T13:04:45.260Z,62.28
2022-10-31T13:07:14.490Z,61.77
2022-10-31T13:09:48.941Z,63.19
2022-10-31T13:12:20.326Z,64.16
2022-10-31T13:14:52.067Z,63.69
2022-10-31T13:17:25.922Z,65.07
2022-10-31T13:20:09.712Z,65.28
2022-10-31T13:22:38.045Z,64.21
2022-10-31T13:25:13.271Z,63.83
2022-10-31T13:27:46.092Z,63.09
2022-10-31T13:30:17.711Z,62.61
2022-10-31T13:32:49.968Z,62.74
2022-10-31T13:35:22.875Z,62.75
2022-10-31T13:37:58.635Z,62.80
2022-10-31T13:40:35.657Z,62.18
2022-10-31T13:43:10.712Z,62.50
2022-10-31T13:45:49.836Z,61.57
2022-10-31T13:48:35.212Z,62.40
2022-10-31T13:51:03.915Z,62.94
2022-10-31T13:53:38.588Z,60.62
2022-10-31T13:56:15.544Z,61.63
2022-10-31T13:58:44.717Z,61.42
2022-10-31T14:01:19.969Z,60.09
2022-10-31T14:04:07.627Z,60.37
2022-10-31T14:06:41.230Z,60.39
2022-10-31T14:09:20.397Z,59.03
2022-10-31T14:11:48.572Z,59.51
2022-10-31T14:14:16.268Z,60.35
2022-10-31T14:16:55.800Z,59.71
2022-10-31T14:19:23.473Z,60.42
2022-10-31T14:21:51.341Z,61.09
2022-10-31T14:24:33.196Z,61.69
2022-10-31T14:27:01.758Z,60.93
2022-10-31T14:29:29.433Z,60.60
2022-10-31T14:32:20.448Z,58.87
2022-10-31T14:34:54.293Z,59.50
2022-10-31T14:37:37.061Z,59.75
2022-10-31T14:40:15.502Z,59.86
2022-10-31T14:42:57.942Z,59.96
2022-10-31T14:45:39.990Z,59.97
2022-10-31T14:48:22.975Z,61.09
2022-10-31T14:50:50.961Z,61.10
2022-10-31T14:53:22.985Z,61.41
2022-10-31T14:55:52.672Z,62.12
2022-10-31T14:58:22.223Z,61.67
2022-10-31T15:00:50.824Z,62.94
2022-10-31T15:03:27.304Z,64.08
2022-10-31T15:05:56.511Z,63.70
2022-10-31T15:08:35.677Z,62.34
2022-10-31T15:11:11.438Z,61.00
2022-10-31T15:13:43.405Z,61.68
2022-10-31T15:16:12.509Z,59.52
2022-10-31T15:18:48.526Z,60.75
2022-10-31T15:21:17.003Z,61.28
2022-10-31T15:23:43.946Z,62.32
2022-10-31T15:26:17.677Z,62.54
2022-10-31T15:28:44.389Z,63.13
2022-10-31T15:31:16.410Z,63.05
2022-10-31T15:33:49.519Z,62.88
2022-10-31T15:36:23.933Z,64.10
2022-10-31T15:38:56.714Z,64.41
2022-10-31T15:41:29.197Z,63.87
2022-10-31T15:43:59.650Z,63.88
2022-10-31T15:46:26.501Z,64.14
2022-10-31T15:48:54.681Z,64.62
2022-10-31T15:51:27.429Z,63.35
2022-10-31T15:53:55.423Z,64.93
2022-10-31T15:56:24.078Z,65.72
2022-10-31T15:58:53.114Z,65.92
2022-10-31T16:01:23.601Z,66.25
2022-10-31T16:04:03.883Z,66.75
2022-10-31T16:06:31.568Z,67.00
2022-10-31T16:08:58.126Z,67.26
2022-10-31T16:11:28.974Z,67.41
2022-10-31T16:14:01.669Z,67.87
2022-10-31T16:16:35.142Z,68.40
2022-10-31T16:19:06.383Z,68.72
2022-10-31T16:21:36.320Z,68.87
2022-10-31T16:24:06.590Z,69.39
2022-10-31T16:26:33.902Z,69.78
2022-10-31T16:29:05.594Z,70.15
2022-10-31T16:31:39.063Z,70.44
2022-10-31T16:34:16.131Z,70.94
2022-10-31T16:36:42.784Z,71.59
2022-10-31T16:39:09.751Z,71.63
2022-10-31T16:41:41.343Z,71.40
2022-10-31T16:44:15.074Z,71.75
2022-10-31T16:46:41.673Z,72.19
2022-10-31T16:49:11.502Z,72.97
2022-10-31T16:51:38.325Z,73.43
2022-10-31T16:54:05.222Z,73.88
2022-10-31T16:56:34.157Z,74.57
2022-10-31T16:59:03.571Z,75.64
2022-10-31T17:01:31.240Z,75.92
2022-10-31T17:03:57.891Z,75.97
2022-10-31T17:06:25.794Z,75.92
2022-10-31T17:08:52.323Z,76.60
2022-10-31T17:11:23.014Z,77.01
2022-10-31T17:13:49.765Z,77.24
2022-10-31T17:16:16.444Z,77.53
2022-10-31T17:18:43.213Z,77.97
2022-10-31T17:21:17.836Z,78.48
2022-10-31T17:23:45.811Z,79.14
2022-10-31T17:26:12.318Z,79.65
2022-10-31T17:28:38.939Z,80.22
2022-10-31T17:31:05.851Z,80.30
2022-10-31T17:33:32.494Z,80.92
2022-10-31T17:35:59.161Z,81.86
2022-10-31T17:38:25.775Z,81.98
2022-10-31T17:40:53.639Z,82.09
2022-10-31T17:43:20.259Z,82.75
2022-10-31T17:45:47.017Z,83.00
2022-10-31T17:48:13.674Z,83.29
2022-10-31T17:50:40.227Z,83.93
2022-10-31T17:53:06.836Z,83.80
2022-10-31T17:55:36.215Z,84.10
2022-10-31T17:58:05.725Z,84.13
2022-10-31T18:00:33.074Z,84.52
2022-10-31T18:03:01.411Z,85.15
2022-10-31T18:05:28.214Z,85.61
2022-10-31T18:07:56.493Z,85.15
2022-10-31T18:10:24.781Z,85.48
2022-10-31T18:12:51.498Z,86.54
2022-10-31T18:15:19.514Z,86.87
2022-10-31T18:17:46.465Z,87.27
2022-10-31T18:20:13.127Z,87.20
2022-10-31T18:22:39.651Z,87.71
2022-10-31T18:25:06.864Z,87.68
2022-10-31T18:27:33.695Z,88.24
2022-10-31T18:30:00.324Z,89.24
2022-10-31T18:32:28.312Z,89.59
2022-10-31T18:34:55.055Z,89.72
2022-10-31T18:37:21.646Z,90.14
2022-10-31T18:39:48.291Z,90.42
2022-10-31T18:42:14.969Z,90.26
2022-10-31T18:44:41.520Z,90.71
2022-10-31T18:47:08.071Z,90.61
2022-10-31T18:49:35.972Z,90.50
2022-10-31T18:52:02.654Z,90.66
2022-10-31T18:54:29.340Z,91.44
2022-10-31T18:56:55.928Z,92.00
2022-10-31T18:59:22.633Z,91.34
2022-10-31T19:01:49.374Z,91.33
2022-10-31T19:04:16.011Z,91.82
2022-10-31T19:06:44.022Z,91.53
2022-10-31T19:09:10.959Z,92.67
2022-10-31T19:11:38.745Z,92.44
2022-10-31T19:14:06.485Z,92.29
2022-10-31T19:16:33.519Z,91.93
2022-10-31T19:19:00.485Z,91.73
2022-10-31T19:21:27.783Z,92.19
2022-10-31T19:23:55.711Z,91.77
2022-10-31T19:26:22.529Z,91.88
2022-10-31T19:28:49.080Z,92.20
2022-10-31T19:31:15.668Z,92.11
2022-10-31T19:33:42.421Z,92.05
2022-10-31T19:36:11.311Z,91.89
2022-10-31T19:38:41.061Z,92.21
2022-10-31T19:41:10.816Z,91.79
2022-10-31T19:43:37.596Z,92.22
2022-10-31T19:46:05.229Z,92.91
2022-10-31T19:48:32.298Z,93.30
2022-10-31T19:51:03.230Z,94.25
2022-10-31T19:53:30.690Z,94.14
2022-10-31T19:55:57.397Z,93.91
2022-10-31T19:58:25.702Z,93.55
2022-10-31T20:00:52.783Z,93.31
2022-10-31T20:03:22.509Z,93.00
2022-10-31T20:05:50.229Z,92.87
2022-10-31T20:08:18.754Z,93.04
2022-10-31T20:10:54.297Z,92.15
2022-10-31T20:13:21.048Z,91.64
2022-10-31T20:15:48.911Z,90.67
2022-10-31T20:18:15.682Z,91.02
2022-10-31T20:20:42.337Z,91.00
2022-10-31T20:23:08.936Z,90.96
2022-10-31T20:25:36.158Z,91.23
2022-10-31T20:28:02.807Z,91.02
2022-10-31T20:30:29.329Z,91.62
2022-10-31T20:32:57.445Z,92.45
2022-10-31T20:35:24.013Z,92.67
2022-10-31T20:37:50.634Z,92.39
2022-10-31T20:40:17.619Z,92.92
2022-10-31T20:42:44.276Z,92.87
2022-10-31T20:45:11.182Z,92.94
2022-10-31T20:47:37.781Z,93.26
2022-10-31T20:50:06.881Z,93.96
2022-10-31T20:52:33.511Z,94.01
2022-10-31T20:55:00.172Z,94.03
2022-10-31T20:57:27.028Z,94.14
2022-10-31T20:59:53.558Z,93.61
2022-10-31T21:02:20.385Z,93.92
2022-10-31T21:04:46.989Z,93.60
2022-10-31T21:07:15.230Z,93.39
2022-10-31T21:09:41.908Z,93.97
2022-10-31T21:12:08.501Z,94.10
2022-10-31T21:14:35.134Z,94.70
2022-10-31T21:17:02.025Z,95.15
2022-10-31T21:19:28.904Z,95.53
2022-10-31T21:21:55.648Z,95.23
2022-10-31T21:24:23.878Z,95.83
2022-10-31T21:26:51.848Z,96.47
2022-10-31T21:29:20.025Z,96.63
2022-10-31T21:31:47.650Z,96.73
2022-10-31T21:34:14.549Z,96.91
2022-10-31T21:36:42.712Z,97.47
2022-10-31T21:39:10.144Z,97.85
2022-10-31T21:41:38.250Z,98.20
2022-10-31T21:44:05.282Z,98.06
2022-10-31T21:46:33.566Z,98.06
2022-10-31T21:49:02.901Z,98.06
2022-10-31T21:51:31.519Z,98.44
2022-10-31T21:53:58.587Z,98.62
2022-10-31T21:56:25.703Z,99.00
2022-10-31T21:58:53.869Z,99.27
2022-10-31T22:01:22.064Z,99.97
2022-10-31T22:03:48.868Z,100.00
2022-10-31T22:06:16.161Z,100.00
2022-10-31T22:08:44.016Z,100.00
2022-10-31T22:11:12.602Z,100.00
2022-10-31T22:13:39.910Z,100.00
2022-10-31T22:16:09.640Z,100.00
2022-10-31T22:18:36.975Z,100.00
2022-10-31T22:21:04.743Z,100.00
2022-10-31T22:23:32.257Z,100.00
2022-10-31T22:26:03.116Z,100.00
2022-10-31T22:28:30.603Z,99.81
2022-10-31T22:30:57.294Z,100.00
2022-10-31T22:33:25.866Z,100.00
2022-10-31T22:35:52.525Z,100.00
2022-10-31T22:38:19.258Z,100.00
2022-10-31T22:40:45.888Z,100.00
2022-10-31T22:43:12.614Z,100.00
2022-10-31T22:45:39.142Z,100.00
2022-10-31T22:48:06.288Z,100.00
2022-10-31T22:50:34.468Z,100.00
2022-10-31T22:53:01.039Z,100.00
2022-10-31T22:55:27.568Z,100.00
2022-10-31T22:57:54.134Z,100.00
2022-10-31T23:00:20.974Z,100.00
2022-10-31T23:02:47.770Z,100.00
2022-10-31T23:05:14.568Z,100.00
2022-10-31T23:07:42.579Z,100.00
2022-10-31T23:10:09.626Z,100.00
2022-10-31T23:12:36.230Z,100.00
2022-10-31T23:15:02.872Z,100.00
2022-10-31T23:17:29.467Z,100.00
2022-10-31T23:19:56.028Z,100.00
2022-10-31T23:22:22.673Z,100.00
2022-10-31T23:24:50.561Z,100.00
2022-10-31T23:27:19.481Z,100.00
2022-10-31T23:29:48.269Z,100.00
2022-10-31T23:32:19.282Z,100.00
2022-10-31T23:34:47.128Z,100.00
2022-10-31T23:37:14.340Z,100.00
2022-10-31T23:39:40.943Z,100.00
2022-10-31T23:42:09.449Z,100.00
2022-10-31T23:44:36.365Z,100.00
2022-10-31T23:47:03.487Z,100.00
2022-10-31T23:49:30.261Z,100.00
2022-10-31T23:51:56.872Z,100.00
2022-10-31T23:54:23.982Z,100.00
2022-10-31T23:56:50.506Z,99.98
2022-10-31T23:59:18.779Z,100.00
